Search for airport 
image banner adimage banner ad
image banner ad

SIVZ - Mata-Fome Airport

Located in Itaqui, Brazil

ICAO - SIVZ, IATA -

Data provided by Airmate  

General information

Coordinates: S29°11'27" W56°32'55"
Elevation is 219 feet MSL.
Magnetic variation is -13° East
Rated:
View ratings: [VIEW]


View others Airports in Rio Grande do Sul

Operational data

Open for public use
Current time UTC:
Current local time:
Weather at : SARL - Paso De Los Libres ( 80 km )
METAR: SARL 032000Z 05009KT 8000 NSC 28/12 Q1020
View NOTAMs / SUP AIP / TFR affecting this airport [VIEW]
Communications frequencies: [VIEW]

Runways:

RWY identifierQFULength (ft)Width (ft)SurfaceLDA (ft)
18229665DIRT
36229665DIRT

Airport contact information

Address: Itaqui Brazil

Satellite view of SIVZ